sensor_id;sensor_type;location;lat;lon;timestamp;P1;durP1;ratioP1;P2;durP2;ratioP2
1082;SDS011;530;51.448;7.238;2022-07-30T00:00:23;6.13;;;4.90;;
1082;SDS011;530;51.448;7.238;2022-07-30T00:02:49;7.50;;;5.60;;
1082;SDS011;530;51.448;7.238;2022-07-30T00:05:15;10.70;;;6.40;;
1082;SDS011;530;51.448;7.238;2022-07-30T00:07:41;8.50;;;5.67;;
1082;SDS011;530;51.448;7.238;2022-07-30T00:10:07;6.67;;;5.27;;
1082;SDS011;530;51.448;7.238;2022-07-30T00:12:33;6.27;;;5.67;;
1082;SDS011;530;51.448;7.238;2022-07-30T00:14:58;7.60;;;5.93;;
1082;SDS011;530;51.448;7.238;2022-07-30T00:17:24;9.17;;;5.90;;
1082;SDS011;530;51.448;7.238;2022-07-30T00:19:50;7.10;;;6.40;;
1082;SDS011;530;51.448;7.238;2022-07-30T00:22:16;5.67;;;5.13;;
1082;SDS011;530;51.448;7.238;2022-07-30T00:24:41;7.70;;;5.47;;
1082;SDS011;530;51.448;7.238;2022-07-30T00:27:07;7.90;;;6.33;;
1082;SDS011;530;51.448;7.238;2022-07-30T00:29:33;7.50;;;6.80;;
1082;SDS011;530;51.448;7.238;2022-07-30T00:31:58;7.33;;;6.73;;
1082;SDS011;530;51.448;7.238;2022-07-30T00:34:24;6.73;;;6.10;;
1082;SDS011;530;51.448;7.238;2022-07-30T00:36:50;7.00;;;6.40;;
1082;SDS011;530;51.448;7.238;2022-07-30T00:39:16;7.60;;;6.90;;
1082;SDS011;530;51.448;7.238;2022-07-30T00:41:51;6.80;;;6.20;;
1082;SDS011;530;51.448;7.238;2022-07-30T00:44:21;8.57;;;6.30;;
1082;SDS011;530;51.448;7.238;2022-07-30T00:46:47;7.17;;;6.40;;
1082;SDS011;530;51.448;7.238;2022-07-30T00:49:13;8.03;;;6.23;;
1082;SDS011;530;51.448;7.238;2022-07-30T00:51:39;7.60;;;6.90;;
1082;SDS011;530;51.448;7.238;2022-07-30T00:54:04;6.63;;;5.93;;
1082;SDS011;530;51.448;7.238;2022-07-30T00:56:30;6.70;;;6.13;;
1082;SDS011;530;51.448;7.238;2022-07-30T00:58:56;6.90;;;6.20;;
1082;SDS011;530;51.448;7.238;2022-07-30T01:01:22;6.57;;;5.97;;
1082;SDS011;530;51.448;7.238;2022-07-30T01:03:47;6.57;;;5.93;;
1082;SDS011;530;51.448;7.238;2022-07-30T01:06:13;6.90;;;6.20;;
1082;SDS011;530;51.448;7.238;2022-07-30T01:08:39;8.20;;;7.40;;
1082;SDS011;530;51.448;7.238;2022-07-30T01:11:07;7.97;;;6.73;;
1082;SDS011;530;51.448;7.238;2022-07-30T01:13:34;7.80;;;6.47;;
1082;SDS011;530;51.448;7.238;2022-07-30T01:15:59;9.37;;;7.27;;
1082;SDS011;530;51.448;7.238;2022-07-30T01:18:25;8.20;;;7.03;;
1082;SDS011;530;51.448;7.238;2022-07-30T01:21:14;7.43;;;6.50;;
1082;SDS011;530;51.448;7.238;2022-07-30T01:23:45;7.57;;;6.40;;
1082;SDS011;530;51.448;7.238;2022-07-30T01:26:13;7.70;;;6.47;;
1082;SDS011;530;51.448;7.238;2022-07-30T01:28:44;7.17;;;6.47;;
1082;SDS011;530;51.448;7.238;2022-07-30T01:31:18;9.27;;;6.80;;
1082;SDS011;530;51.448;7.238;2022-07-30T01:33:46;8.70;;;7.00;;
1082;SDS011;530;51.448;7.238;2022-07-30T01:36:14;7.73;;;7.03;;
1082;SDS011;530;51.448;7.238;2022-07-30T01:38:43;8.37;;;7.50;;
1082;SDS011;530;51.448;7.238;2022-07-30T01:41:10;7.83;;;6.93;;
1082;SDS011;530;51.448;7.238;2022-07-30T01:43:37;9.30;;;6.60;;
1082;SDS011;530;51.448;7.238;2022-07-30T01:46:05;7.57;;;6.80;;
1082;SDS011;530;51.448;7.238;2022-07-30T01:48:34;7.80;;;7.03;;
1082;SDS011;530;51.448;7.238;2022-07-30T01:51:04;9.13;;;6.70;;
1082;SDS011;530;51.448;7.238;2022-07-30T01:53:31;10.03;;;7.27;;
1082;SDS011;530;51.448;7.238;2022-07-30T01:56:00;7.60;;;6.80;;
1082;SDS011;530;51.448;7.238;2022-07-30T01:58:30;7.77;;;7.00;;
1082;SDS011;530;51.448;7.238;2022-07-30T02:00:58;8.00;;;7.20;;
1082;SDS011;530;51.448;7.238;2022-07-30T02:03:24;8.53;;;7.73;;
1082;SDS011;530;51.448;7.238;2022-07-30T02:06:00;8.20;;;7.50;;
1082;SDS011;530;51.448;7.238;2022-07-30T02:11:07;8.03;;;7.33;;
1082;SDS011;530;51.448;7.238;2022-07-30T02:13:49;8.13;;;7.33;;
1082;SDS011;530;51.448;7.238;2022-07-30T02:16:26;8.63;;;7.37;;
1082;SDS011;530;51.448;7.238;2022-07-30T02:19:01;7.83;;;7.13;;
1082;SDS011;530;51.448;7.238;2022-07-30T02:21:34;10.00;;;7.70;;
1082;SDS011;530;51.448;7.238;2022-07-30T02:24:04;8.63;;;7.80;;
1082;SDS011;530;51.448;7.238;2022-07-30T02:26:32;8.90;;;7.80;;
1082;SDS011;530;51.448;7.238;2022-07-30T02:29:02;8.40;;;7.70;;
1082;SDS011;530;51.448;7.238;2022-07-30T02:31:30;8.60;;;7.67;;
1082;SDS011;530;51.448;7.238;2022-07-30T02:33:57;8.87;;;8.07;;
1082;SDS011;530;51.448;7.238;2022-07-30T02:36:26;9.27;;;8.47;;
1082;SDS011;530;51.448;7.238;2022-07-30T02:38:53;12.40;;;8.40;;
1082;SDS011;530;51.448;7.238;2022-07-30T02:41:22;9.23;;;8.37;;
1082;SDS011;530;51.448;7.238;2022-07-30T02:43:51;8.93;;;8.10;;
1082;SDS011;530;51.448;7.238;2022-07-30T02:46:18;9.83;;;8.93;;
1082;SDS011;530;51.448;7.238;2022-07-30T02:48:45;8.40;;;7.70;;
1082;SDS011;530;51.448;7.238;2022-07-30T02:51:14;8.87;;;7.97;;
1082;SDS011;530;51.448;7.238;2022-07-30T02:53:42;8.90;;;8.00;;
1082;SDS011;530;51.448;7.238;2022-07-30T02:56:10;9.03;;;8.00;;
1082;SDS011;530;51.448;7.238;2022-07-30T02:58:37;9.00;;;8.03;;
1082;SDS011;530;51.448;7.238;2022-07-30T03:01:05;10.50;;;9.20;;
1082;SDS011;530;51.448;7.238;2022-07-30T03:03:32;9.47;;;8.60;;
1082;SDS011;530;51.448;7.238;2022-07-30T03:05:59;9.13;;;8.27;;
1082;SDS011;530;51.448;7.238;2022-07-30T03:08:27;11.10;;;8.20;;
1082;SDS011;530;51.448;7.238;2022-07-30T03:10:55;9.03;;;8.20;;
1082;SDS011;530;51.448;7.238;2022-07-30T03:13:21;10.33;;;9.13;;
1082;SDS011;530;51.448;7.238;2022-07-30T03:15:48;10.67;;;8.53;;
1082;SDS011;530;51.448;7.238;2022-07-30T03:18:16;9.43;;;8.63;;
1082;SDS011;530;51.448;7.238;2022-07-30T03:20:53;9.30;;;8.37;;
1082;SDS011;530;51.448;7.238;2022-07-30T03:23:21;13.20;;;9.30;;
1082;SDS011;530;51.448;7.238;2022-07-30T03:25:52;10.23;;;8.50;;
1082;SDS011;530;51.448;7.238;2022-07-30T03:28:21;11.27;;;8.37;;
1082;SDS011;530;51.448;7.238;2022-07-30T03:30:48;15.70;;;10.37;;
1082;SDS011;530;51.448;7.238;2022-07-30T03:33:15;10.23;;;8.83;;
1082;SDS011;530;51.448;7.238;2022-07-30T03:35:41;9.83;;;9.00;;
1082;SDS011;530;51.448;7.238;2022-07-30T03:38:12;10.07;;;9.17;;
1082;SDS011;530;51.448;7.238;2022-07-30T03:40:39;10.43;;;9.43;;
1082;SDS011;530;51.448;7.238;2022-07-30T03:43:07;12.07;;;10.00;;
1082;SDS011;530;51.448;7.238;2022-07-30T03:45:35;9.83;;;7.63;;
1082;SDS011;530;51.448;7.238;2022-07-30T03:48:02;11.23;;;10.23;;
1082;SDS011;530;51.448;7.238;2022-07-30T03:50:32;11.40;;;8.93;;
1082;SDS011;530;51.448;7.238;2022-07-30T03:53:03;11.47;;;10.27;;
1082;SDS011;530;51.448;7.238;2022-07-30T03:55:30;10.73;;;9.57;;
1082;SDS011;530;51.448;7.238;2022-07-30T03:57:57;12.07;;;10.53;;
1082;SDS011;530;51.448;7.238;2022-07-30T04:00:24;10.87;;;9.87;;
1082;SDS011;530;51.448;7.238;2022-07-30T04:02:51;11.73;;;10.60;;
1082;SDS011;530;51.448;7.238;2022-07-30T04:05:17;12.00;;;10.90;;
1082;SDS011;530;51.448;7.238;2022-07-30T04:07:43;12.00;;;10.80;;
1082;SDS011;530;51.448;7.238;2022-07-30T04:10:09;12.10;;;10.83;;
1082;SDS011;530;51.448;7.238;2022-07-30T04:12:35;12.07;;;10.70;;
1082;SDS011;530;51.448;7.238;2022-07-30T04:15:01;12.20;;;11.10;;
1082;SDS011;530;51.448;7.238;2022-07-30T04:20:24;12.67;;;11.37;;
1082;SDS011;530;51.448;7.238;2022-07-30T04:22:56;12.33;;;11.20;;
1082;SDS011;530;51.448;7.238;2022-07-30T04:25:22;12.63;;;11.43;;
1082;SDS011;530;51.448;7.238;2022-07-30T04:27:49;14.33;;;12.93;;
1082;SDS011;530;51.448;7.238;2022-07-30T04:30:15;15.20;;;12.77;;
1082;SDS011;530;51.448;7.238;2022-07-30T04:32:41;11.53;;;10.40;;
1082;SDS011;530;51.448;7.238;2022-07-30T04:35:07;12.97;;;11.63;;
1082;SDS011;530;51.448;7.238;2022-07-30T04:37:33;14.10;;;11.50;;
1082;SDS011;530;51.448;7.238;2022-07-30T04:39:59;16.50;;;12.77;;
1082;SDS011;530;51.448;7.238;2022-07-30T04:42:25;13.10;;;11.90;;
1082;SDS011;530;51.448;7.238;2022-07-30T04:44:52;14.63;;;13.23;;
1082;SDS011;530;51.448;7.238;2022-07-30T04:47:19;14.93;;;13.53;;
1082;SDS011;530;51.448;7.238;2022-07-30T04:49:45;19.73;;;14.33;;
1082;SDS011;530;51.448;7.238;2022-07-30T04:52:12;17.60;;;15.90;;
1082;SDS011;530;51.448;7.238;2022-07-30T04:54:41;14.97;;;13.47;;
1082;SDS011;530;51.448;7.238;2022-07-30T04:57:10;17.00;;;14.30;;
1082;SDS011;530;51.448;7.238;2022-07-30T04:59:39;16.20;;;14.63;;
1082;SDS011;530;51.448;7.238;2022-07-30T05:02:05;16.70;;;14.10;;
1082;SDS011;530;51.448;7.238;2022-07-30T05:04:33;16.53;;;14.83;;
1082;SDS011;530;51.448;7.238;2022-07-30T05:07:00;15.50;;;13.90;;
1082;SDS011;530;51.448;7.238;2022-07-30T05:09:27;14.60;;;13.20;;
1082;SDS011;530;51.448;7.238;2022-07-30T05:11:54;18.50;;;14.20;;
1082;SDS011;530;51.448;7.238;2022-07-30T05:14:20;20.83;;;16.10;;
1082;SDS011;530;51.448;7.238;2022-07-30T05:16:48;17.97;;;16.07;;
1082;SDS011;530;51.448;7.238;2022-07-30T05:19:14;18.57;;;16.30;;
1082;SDS011;530;51.448;7.238;2022-07-30T05:21:41;18.43;;;16.43;;
1082;SDS011;530;51.448;7.238;2022-07-30T05:24:06;21.43;;;17.20;;
1082;SDS011;530;51.448;7.238;2022-07-30T05:26:32;19.90;;;16.53;;
1082;SDS011;530;51.448;7.238;2022-07-30T05:28:58;23.83;;;18.47;;
1082;SDS011;530;51.448;7.238;2022-07-30T05:31:24;27.20;;;20.40;;
1082;SDS011;530;51.448;7.238;2022-07-30T05:33:49;31.20;;;20.50;;
1082;SDS011;530;51.448;7.238;2022-07-30T05:36:16;29.53;;;20.93;;
1082;SDS011;530;51.448;7.238;2022-07-30T05:38:41;26.40;;;20.17;;
1082;SDS011;530;51.448;7.238;2022-07-30T05:41:07;27.60;;;20.63;;
1082;SDS011;530;51.448;7.238;2022-07-30T05:43:33;29.77;;;22.93;;
1082;SDS011;530;51.448;7.238;2022-07-30T05:45:59;30.57;;;21.87;;
1082;SDS011;530;51.448;7.238;2022-07-30T05:48:24;34.57;;;23.70;;
1082;SDS011;530;51.448;7.238;2022-07-30T05:50:52;34.80;;;23.70;;
1082;SDS011;530;51.448;7.238;2022-07-30T05:53:18;30.50;;;22.47;;
1082;SDS011;530;51.448;7.238;2022-07-30T05:55:43;31.83;;;22.53;;
1082;SDS011;530;51.448;7.238;2022-07-30T05:58:09;34.07;;;23.80;;
1082;SDS011;530;51.448;7.238;2022-07-30T06:00:35;36.27;;;24.60;;
1082;SDS011;530;51.448;7.238;2022-07-30T06:03:01;33.93;;;23.20;;
1082;SDS011;530;51.448;7.238;2022-07-30T06:05:27;27.70;;;22.60;;
1082;SDS011;530;51.448;7.238;2022-07-30T06:07:53;28.43;;;21.83;;
1082;SDS011;530;51.448;7.238;2022-07-30T06:10:19;27.37;;;20.80;;
1082;SDS011;530;51.448;7.238;2022-07-30T06:12:45;25.00;;;20.93;;
1082;SDS011;530;51.448;7.238;2022-07-30T06:15:10;35.40;;;24.87;;
1082;SDS011;530;51.448;7.238;2022-07-30T06:17:40;29.27;;;23.20;;
1082;SDS011;530;51.448;7.238;2022-07-30T06:20:10;26.67;;;21.30;;
1082;SDS011;530;51.448;7.238;2022-07-30T06:22:37;26.87;;;21.70;;
1082;SDS011;530;51.448;7.238;2022-07-30T06:25:04;28.97;;;21.87;;
1082;SDS011;530;51.448;7.238;2022-07-30T06:27:31;26.33;;;20.30;;
1082;SDS011;530;51.448;7.238;2022-07-30T06:30:00;27.90;;;24.10;;
1082;SDS011;530;51.448;7.238;2022-07-30T06:32:28;30.63;;;24.90;;
1082;SDS011;530;51.448;7.238;2022-07-30T06:34:54;34.50;;;26.30;;
1082;SDS011;530;51.448;7.238;2022-07-30T06:37:19;37.53;;;27.67;;
1082;SDS011;530;51.448;7.238;2022-07-30T06:39:45;34.90;;;27.87;;
1082;SDS011;530;51.448;7.238;2022-07-30T06:42:11;35.07;;;27.90;;
1082;SDS011;530;51.448;7.238;2022-07-30T06:44:37;38.23;;;30.10;;
1082;SDS011;530;51.448;7.238;2022-07-30T06:47:03;34.10;;;27.73;;
1082;SDS011;530;51.448;7.238;2022-07-30T06:49:32;32.93;;;28.00;;
1082;SDS011;530;51.448;7.238;2022-07-30T06:51:59;30.97;;;26.00;;
1082;SDS011;530;51.448;7.238;2022-07-30T06:54:25;30.27;;;23.93;;
1082;SDS011;530;51.448;7.238;2022-07-30T06:56:50;35.20;;;27.10;;
1082;SDS011;530;51.448;7.238;2022-07-30T06:59:16;28.97;;;25.07;;
1082;SDS011;530;51.448;7.238;2022-07-30T07:01:42;33.70;;;28.97;;
1082;SDS011;530;51.448;7.238;2022-07-30T07:04:08;34.60;;;30.47;;
1082;SDS011;530;51.448;7.238;2022-07-30T07:06:34;41.70;;;34.07;;
1082;SDS011;530;51.448;7.238;2022-07-30T07:08:59;41.87;;;36.03;;
1082;SDS011;530;51.448;7.238;2022-07-30T07:11:25;54.07;;;39.87;;
1082;SDS011;530;51.448;7.238;2022-07-30T07:13:51;47.53;;;38.17;;
1082;SDS011;530;51.448;7.238;2022-07-30T07:16:17;46.20;;;37.30;;
1082;SDS011;530;51.448;7.238;2022-07-30T07:18:49;44.83;;;37.33;;
1082;SDS011;530;51.448;7.238;2022-07-30T07:21:16;40.80;;;35.20;;
1082;SDS011;530;51.448;7.238;2022-07-30T07:23:42;45.90;;;40.60;;
1082;SDS011;530;51.448;7.238;2022-07-30T07:26:09;44.60;;;37.77;;
1082;SDS011;530;51.448;7.238;2022-07-30T07:28:35;50.63;;;39.80;;
1082;SDS011;530;51.448;7.238;2022-07-30T07:31:01;52.30;;;43.20;;
1082;SDS011;530;51.448;7.238;2022-07-30T07:33:28;46.60;;;39.77;;
1082;SDS011;530;51.448;7.238;2022-07-30T07:35:54;50.00;;;40.90;;
1082;SDS011;530;51.448;7.238;2022-07-30T07:38:19;41.53;;;36.30;;
1082;SDS011;530;51.448;7.238;2022-07-30T07:40:46;40.07;;;33.63;;
1082;SDS011;530;51.448;7.238;2022-07-30T07:43:12;38.40;;;30.40;;
1082;SDS011;530;51.448;7.238;2022-07-30T07:45:39;33.07;;;26.77;;
1082;SDS011;530;51.448;7.238;2022-07-30T07:48:05;34.00;;;28.27;;
1082;SDS011;530;51.448;7.238;2022-07-30T07:50:31;34.23;;;26.33;;
1082;SDS011;530;51.448;7.238;2022-07-30T07:52:57;36.23;;;28.17;;
1082;SDS011;530;51.448;7.238;2022-07-30T07:55:23;44.43;;;31.60;;
1082;SDS011;530;51.448;7.238;2022-07-30T07:57:49;39.57;;;29.10;;
1082;SDS011;530;51.448;7.238;2022-07-30T08:00:14;49.10;;;33.17;;
1082;SDS011;530;51.448;7.238;2022-07-30T08:02:41;41.30;;;31.27;;
1082;SDS011;530;51.448;7.238;2022-07-30T08:05:07;51.00;;;34.97;;
1082;SDS011;530;51.448;7.238;2022-07-30T08:07:34;47.70;;;33.30;;
1082;SDS011;530;51.448;7.238;2022-07-30T08:10:00;58.67;;;37.53;;
1082;SDS011;530;51.448;7.238;2022-07-30T08:12:26;62.20;;;39.67;;
1082;SDS011;530;51.448;7.238;2022-07-30T08:14:52;64.70;;;40.50;;
1082;SDS011;530;51.448;7.238;2022-07-30T08:17:18;67.13;;;39.93;;
1082;SDS011;530;51.448;7.238;2022-07-30T08:19:44;65.13;;;40.53;;
1082;SDS011;530;51.448;7.238;2022-07-30T08:22:10;67.03;;;38.47;;
1082;SDS011;530;51.448;7.238;2022-07-30T08:24:36;66.37;;;39.60;;
1082;SDS011;530;51.448;7.238;2022-07-30T08:27:02;69.27;;;41.00;;
1082;SDS011;530;51.448;7.238;2022-07-30T08:29:28;66.73;;;43.87;;
1082;SDS011;530;51.448;7.238;2022-07-30T08:31:54;64.83;;;41.27;;
1082;SDS011;530;51.448;7.238;2022-07-30T08:34:20;69.60;;;42.00;;
1082;SDS011;530;51.448;7.238;2022-07-30T08:36:46;75.20;;;42.80;;
1082;SDS011;530;51.448;7.238;2022-07-30T08:39:12;69.30;;;40.90;;
1082;SDS011;530;51.448;7.238;2022-07-30T08:41:38;67.33;;;42.67;;
1082;SDS011;530;51.448;7.238;2022-07-30T08:44:07;58.63;;;40.00;;
1082;SDS011;530;51.448;7.238;2022-07-30T08:46:35;63.63;;;40.40;;
1082;SDS011;530;51.448;7.238;2022-07-30T08:49:04;52.53;;;36.30;;
1082;SDS011;530;51.448;7.238;2022-07-30T08:51:32;59.17;;;37.33;;
1082;SDS011;530;51.448;7.238;2022-07-30T08:53:59;53.53;;;35.37;;
1082;SDS011;530;51.448;7.238;2022-07-30T08:56:26;57.30;;;36.10;;
1082;SDS011;530;51.448;7.238;2022-07-30T08:58:52;54.17;;;37.53;;
1082;SDS011;530;51.448;7.238;2022-07-30T09:01:19;54.77;;;34.67;;
1082;SDS011;530;51.448;7.238;2022-07-30T09:03:46;51.50;;;33.30;;
1082;SDS011;530;51.448;7.238;2022-07-30T09:06:12;47.80;;;32.13;;
1082;SDS011;530;51.448;7.238;2022-07-30T09:08:39;43.37;;;30.70;;
1082;SDS011;530;51.448;7.238;2022-07-30T09:11:05;41.20;;;30.20;;
1082;SDS011;530;51.448;7.238;2022-07-30T09:13:32;45.57;;;31.20;;
1082;SDS011;530;51.448;7.238;2022-07-30T09:16:02;43.80;;;28.63;;
1082;SDS011;530;51.448;7.238;2022-07-30T09:24:04;32.13;;;23.97;;
1082;SDS011;530;51.448;7.238;2022-07-30T09:26:50;37.50;;;27.37;;
1082;SDS011;530;51.448;7.238;2022-07-30T09:29:17;34.33;;;27.67;;
1082;SDS011;530;51.448;7.238;2022-07-30T09:31:57;32.80;;;24.93;;
1082;SDS011;530;51.448;7.238;2022-07-30T09:34:26;34.57;;;26.00;;
1082;SDS011;530;51.448;7.238;2022-07-30T09:36:53;35.47;;;26.50;;
1082;SDS011;530;51.448;7.238;2022-07-30T09:39:29;31.00;;;25.60;;
1082;SDS011;530;51.448;7.238;2022-07-30T09:42:00;31.30;;;25.20;;
1082;SDS011;530;51.448;7.238;2022-07-30T09:44:28;31.60;;;24.70;;
1082;SDS011;530;51.448;7.238;2022-07-30T09:46:54;32.93;;;26.10;;
1082;SDS011;530;51.448;7.238;2022-07-30T09:49:22;28.60;;;24.30;;
1082;SDS011;530;51.448;7.238;2022-07-30T09:51:52;28.10;;;24.27;;
1082;SDS011;530;51.448;7.238;2022-07-30T09:54:19;24.70;;;21.33;;
1082;SDS011;530;51.448;7.238;2022-07-30T09:56:45;23.73;;;20.30;;
1082;SDS011;530;51.448;7.238;2022-07-30T10:01:53;23.60;;;19.17;;
1082;SDS011;530;51.448;7.238;2022-07-30T10:04:23;21.50;;;18.00;;
1082;SDS011;530;51.448;7.238;2022-07-30T10:07:00;20.83;;;16.00;;
1082;SDS011;530;51.448;7.238;2022-07-30T10:09:26;15.07;;;13.67;;
1082;SDS011;530;51.448;7.238;2022-07-30T10:11:54;13.53;;;12.00;;
1082;SDS011;530;51.448;7.238;2022-07-30T10:14:22;15.83;;;13.10;;
1082;SDS011;530;51.448;7.238;2022-07-30T10:16:52;14.87;;;13.37;;
1082;SDS011;530;51.448;7.238;2022-07-30T10:19:18;17.10;;;15.50;;
1082;SDS011;530;51.448;7.238;2022-07-30T10:21:45;14.90;;;12.07;;
1082;SDS011;530;51.448;7.238;2022-07-30T10:24:15;16.77;;;11.30;;
1082;SDS011;530;51.448;7.238;2022-07-30T10:26:42;17.77;;;12.17;;
1082;SDS011;530;51.448;7.238;2022-07-30T10:29:09;14.67;;;10.90;;
1082;SDS011;530;51.448;7.238;2022-07-30T10:31:36;12.30;;;10.60;;
1082;SDS011;530;51.448;7.238;2022-07-30T10:34:02;11.43;;;10.33;;
1082;SDS011;530;51.448;7.238;2022-07-30T10:36:28;12.93;;;9.40;;
1082;SDS011;530;51.448;7.238;2022-07-30T10:38:55;9.37;;;7.50;;
1082;SDS011;530;51.448;7.238;2022-07-30T10:47:07;9.30;;;7.30;;
1082;SDS011;530;51.448;7.238;2022-07-30T10:49:36;9.70;;;8.67;;
1082;SDS011;530;51.448;7.238;2022-07-30T10:52:02;9.57;;;8.40;;
1082;SDS011;530;51.448;7.238;2022-07-30T11:02:14;14.07;;;9.00;;
1082;SDS011;530;51.448;7.238;2022-07-30T11:04:40;12.73;;;9.17;;
1082;SDS011;530;51.448;7.238;2022-07-30T11:09:54;8.63;;;7.93;;
1082;SDS011;530;51.448;7.238;2022-07-30T11:15:06;8.83;;;8.13;;
1082;SDS011;530;51.448;7.238;2022-07-30T11:20:25;10.83;;;9.67;;
1082;SDS011;530;51.448;7.238;2022-07-30T11:22:52;9.60;;;8.80;;
1082;SDS011;530;51.448;7.238;2022-07-30T11:27:47;11.20;;;10.07;;
1082;SDS011;530;51.448;7.238;2022-07-30T11:32:40;10.70;;;9.10;;
1082;SDS011;530;51.448;7.238;2022-07-30T11:35:10;8.20;;;7.50;;
1082;SDS011;530;51.448;7.238;2022-07-30T11:40:33;8.87;;;7.97;;
1082;SDS011;530;51.448;7.238;2022-07-30T11:46:13;8.20;;;7.60;;
1082;SDS011;530;51.448;7.238;2022-07-30T11:48:53;10.23;;;8.80;;
1082;SDS011;530;51.448;7.238;2022-07-30T11:51:42;9.20;;;8.53;;
1082;SDS011;530;51.448;7.238;2022-07-30T11:54:09;8.60;;;7.80;;
1082;SDS011;530;51.448;7.238;2022-07-30T11:56:36;7.20;;;6.60;;
1082;SDS011;530;51.448;7.238;2022-07-30T11:59:15;6.60;;;6.10;;
1082;SDS011;530;51.448;7.238;2022-07-30T12:01:41;5.93;;;5.53;;
1082;SDS011;530;51.448;7.238;2022-07-30T12:04:07;5.77;;;5.27;;
1082;SDS011;530;51.448;7.238;2022-07-30T12:06:42;5.97;;;4.90;;
1082;SDS011;530;51.448;7.238;2022-07-30T12:09:08;7.37;;;5.30;;
1082;SDS011;530;51.448;7.238;2022-07-30T12:11:34;6.97;;;5.07;;
1082;SDS011;530;51.448;7.238;2022-07-30T12:14:01;6.03;;;5.03;;
1082;SDS011;530;51.448;7.238;2022-07-30T12:16:28;6.07;;;4.50;;
1082;SDS011;530;51.448;7.238;2022-07-30T12:18:59;5.63;;;4.20;;
1082;SDS011;530;51.448;7.238;2022-07-30T12:21:27;4.13;;;3.73;;
1082;SDS011;530;51.448;7.238;2022-07-30T12:26:29;4.10;;;3.80;;
1082;SDS011;530;51.448;7.238;2022-07-30T12:28:57;4.10;;;3.67;;
1082;SDS011;530;51.448;7.238;2022-07-30T12:31:25;4.83;;;4.37;;
1082;SDS011;530;51.448;7.238;2022-07-30T12:33:51;4.53;;;3.60;;
1082;SDS011;530;51.448;7.238;2022-07-30T12:36:24;4.10;;;3.70;;
1082;SDS011;530;51.448;7.238;2022-07-30T12:38:57;4.00;;;3.30;;
1082;SDS011;530;51.448;7.238;2022-07-30T12:41:44;3.27;;;2.97;;
1082;SDS011;530;51.448;7.238;2022-07-30T12:44:32;3.70;;;2.90;;
1082;SDS011;530;51.448;7.238;2022-07-30T12:47:01;3.43;;;3.10;;
1082;SDS011;530;51.448;7.238;2022-07-30T12:49:28;3.73;;;3.23;;
1082;SDS011;530;51.448;7.238;2022-07-30T12:51:55;3.50;;;2.70;;
1082;SDS011;530;51.448;7.238;2022-07-30T12:54:21;4.10;;;2.90;;
1082;SDS011;530;51.448;7.238;2022-07-30T12:59:22;4.47;;;2.87;;
1082;SDS011;530;51.448;7.238;2022-07-30T13:01:48;4.77;;;3.10;;
1082;SDS011;530;51.448;7.238;2022-07-30T13:04:16;5.77;;;3.30;;
1082;SDS011;530;51.448;7.238;2022-07-30T13:06:42;4.47;;;2.90;;
1082;SDS011;530;51.448;7.238;2022-07-30T13:09:18;3.83;;;2.73;;
1082;SDS011;530;51.448;7.238;2022-07-30T13:11:45;7.90;;;3.67;;
1082;SDS011;530;51.448;7.238;2022-07-30T13:14:12;3.77;;;3.20;;
1082;SDS011;530;51.448;7.238;2022-07-30T13:16:40;3.33;;;2.83;;
1082;SDS011;530;51.448;7.238;2022-07-30T13:19:07;4.33;;;3.50;;
1082;SDS011;530;51.448;7.238;2022-07-30T13:21:38;3.40;;;2.80;;
1082;SDS011;530;51.448;7.238;2022-07-30T13:24:05;3.47;;;3.17;;
1082;SDS011;530;51.448;7.238;2022-07-30T13:26:32;3.90;;;2.90;;
1082;SDS011;530;51.448;7.238;2022-07-30T13:29:00;3.37;;;2.67;;
1082;SDS011;530;51.448;7.238;2022-07-30T13:31:26;4.93;;;3.30;;
1082;SDS011;530;51.448;7.238;2022-07-30T13:33:51;4.07;;;2.90;;
1082;SDS011;530;51.448;7.238;2022-07-30T13:36:17;4.70;;;3.33;;
1082;SDS011;530;51.448;7.238;2022-07-30T13:38:46;3.60;;;3.30;;
1082;SDS011;530;51.448;7.238;2022-07-30T13:41:12;4.20;;;3.57;;
1082;SDS011;530;51.448;7.238;2022-07-30T13:43:40;5.90;;;2.97;;
1082;SDS011;530;51.448;7.238;2022-07-30T13:46:06;3.10;;;2.83;;
1082;SDS011;530;51.448;7.238;2022-07-30T13:48:32;5.20;;;2.80;;
1082;SDS011;530;51.448;7.238;2022-07-30T13:51:01;4.73;;;3.23;;
1082;SDS011;530;51.448;7.238;2022-07-30T13:53:28;3.83;;;3.20;;
1082;SDS011;530;51.448;7.238;2022-07-30T13:55:54;4.57;;;3.63;;
1082;SDS011;530;51.448;7.238;2022-07-30T13:58:20;4.37;;;4.00;;
1082;SDS011;530;51.448;7.238;2022-07-30T14:00:46;3.57;;;3.27;;
1082;SDS011;530;51.448;7.238;2022-07-30T14:03:12;4.63;;;3.00;;
1082;SDS011;530;51.448;7.238;2022-07-30T14:05:38;6.70;;;3.60;;
1082;SDS011;530;51.448;7.238;2022-07-30T14:08:05;5.43;;;4.07;;
1082;SDS011;530;51.448;7.238;2022-07-30T14:10:33;3.50;;;3.13;;
1082;SDS011;530;51.448;7.238;2022-07-30T14:13:01;5.13;;;3.33;;
1082;SDS011;530;51.448;7.238;2022-07-30T14:15:29;5.80;;;3.50;;
1082;SDS011;530;51.448;7.238;2022-07-30T14:17:55;3.33;;;3.03;;
1082;SDS011;530;51.448;7.238;2022-07-30T14:20:22;3.60;;;3.07;;
1082;SDS011;530;51.448;7.238;2022-07-30T14:22:48;3.80;;;2.57;;
1082;SDS011;530;51.448;7.238;2022-07-30T14:25:14;2.80;;;2.60;;
1082;SDS011;530;51.448;7.238;2022-07-30T14:27:40;3.60;;;2.63;;
1082;SDS011;530;51.448;7.238;2022-07-30T14:30:06;3.57;;;3.27;;
1082;SDS011;530;51.448;7.238;2022-07-30T14:32:33;4.40;;;3.00;;
1082;SDS011;530;51.448;7.238;2022-07-30T14:35:03;3.80;;;3.23;;
1082;SDS011;530;51.448;7.238;2022-07-30T14:37:30;3.53;;;3.27;;
1082;SDS011;530;51.448;7.238;2022-07-30T14:39:56;3.70;;;2.80;;
1082;SDS011;530;51.448;7.238;2022-07-30T14:42:22;4.80;;;2.90;;
1082;SDS011;530;51.448;7.238;2022-07-30T14:44:49;4.90;;;3.30;;
1082;SDS011;530;51.448;7.238;2022-07-30T14:47:15;4.93;;;3.77;;
1082;SDS011;530;51.448;7.238;2022-07-30T14:49:41;3.50;;;3.20;;
1082;SDS011;530;51.448;7.238;2022-07-30T14:52:07;4.40;;;3.03;;
1082;SDS011;530;51.448;7.238;2022-07-30T14:54:32;3.53;;;3.23;;
1082;SDS011;530;51.448;7.238;2022-07-30T14:56:58;4.00;;;3.33;;
1082;SDS011;530;51.448;7.238;2022-07-30T14:59:24;4.00;;;3.20;;
1082;SDS011;530;51.448;7.238;2022-07-30T15:01:51;3.67;;;3.20;;
1082;SDS011;530;51.448;7.238;2022-07-30T15:04:18;3.40;;;3.10;;
1082;SDS011;530;51.448;7.238;2022-07-30T15:06:44;4.27;;;3.87;;
1082;SDS011;530;51.448;7.238;2022-07-30T15:09:10;4.07;;;3.77;;
1082;SDS011;530;51.448;7.238;2022-07-30T15:11:36;3.40;;;3.10;;
1082;SDS011;530;51.448;7.238;2022-07-30T15:14:02;3.80;;;3.37;;
1082;SDS011;530;51.448;7.238;2022-07-30T15:16:28;4.10;;;3.50;;
1082;SDS011;530;51.448;7.238;2022-07-30T15:18:53;5.20;;;3.50;;
1082;SDS011;530;51.448;7.238;2022-07-30T15:21:19;5.90;;;3.03;;
1082;SDS011;530;51.448;7.238;2022-07-30T15:23:45;3.10;;;2.90;;
1082;SDS011;530;51.448;7.238;2022-07-30T15:26:10;3.43;;;3.10;;
1082;SDS011;530;51.448;7.238;2022-07-30T15:28:36;2.97;;;2.67;;
1082;SDS011;530;51.448;7.238;2022-07-30T15:31:02;3.23;;;2.80;;
1082;SDS011;530;51.448;7.238;2022-07-30T15:33:28;2.90;;;2.40;;
1082;SDS011;530;51.448;7.238;2022-07-30T15:35:54;2.63;;;2.43;;
1082;SDS011;530;51.448;7.238;2022-07-30T15:38:20;2.17;;;1.90;;
1082;SDS011;530;51.448;7.238;2022-07-30T15:40:46;2.70;;;2.50;;
1082;SDS011;530;51.448;7.238;2022-07-30T15:43:12;2.60;;;2.00;;
1082;SDS011;530;51.448;7.238;2022-07-30T15:45:38;2.23;;;2.03;;
1082;SDS011;530;51.448;7.238;2022-07-30T15:48:03;3.30;;;2.63;;
1082;SDS011;530;51.448;7.238;2022-07-30T15:50:29;2.80;;;2.60;;
1082;SDS011;530;51.448;7.238;2022-07-30T15:52:55;2.67;;;2.43;;
1082;SDS011;530;51.448;7.238;2022-07-30T15:55:21;3.30;;;2.77;;
1082;SDS011;530;51.448;7.238;2022-07-30T15:57:47;4.73;;;2.93;;
1082;SDS011;530;51.448;7.238;2022-07-30T16:00:13;3.07;;;2.87;;
1082;SDS011;530;51.448;7.238;2022-07-30T16:02:40;4.87;;;3.30;;
1082;SDS011;530;51.448;7.238;2022-07-30T16:05:06;5.00;;;3.20;;
1082;SDS011;530;51.448;7.238;2022-07-30T16:07:33;3.93;;;3.57;;
1082;SDS011;530;51.448;7.238;2022-07-30T16:09:59;3.20;;;2.90;;